createdAt,value
2022-10-11T00:02:14.334Z,0
2022-10-11T00:07:37.079Z,0
2022-10-11T00:12:59.663Z,0
2022-10-11T00:18:25.174Z,0
2022-10-11T00:23:47.795Z,0
2022-10-11T00:29:10.209Z,0
2022-10-11T00:34:35.879Z,0
2022-10-11T00:40:10.402Z,0
2022-10-11T00:45:35.492Z,0
2022-10-11T00:50:58.086Z,0
2022-10-11T00:56:20.619Z,0
2022-10-11T01:01:42.811Z,0
2022-10-11T01:07:05.846Z,0
2022-10-11T01:12:28.448Z,0
2022-10-11T01:17:59.115Z,0
2022-10-11T01:23:21.448Z,0
2022-10-11T01:34:13.551Z,0
2022-10-11T01:39:41.519Z,0
2022-10-11T01:45:03.732Z,0
2022-10-11T01:50:26.225Z,0
2022-10-11T01:55:48.617Z,0
2022-10-11T02:01:11.283Z,0
2022-10-11T02:06:34.146Z,0
2022-10-11T02:11:56.597Z,0
2022-10-11T02:17:19.199Z,0
2022-10-11T02:22:41.556Z,0
2022-10-11T02:28:06.621Z,0
2022-10-11T02:33:41.523Z,0
2022-10-11T02:39:03.859Z,0
2022-10-11T02:44:29.514Z,0
2022-10-11T02:49:51.876Z,0
2022-10-11T02:55:14.832Z,0
2022-10-11T03:00:37.439Z,0
2022-10-11T03:05:59.867Z,0
2022-10-11T03:11:23.701Z,0
2022-10-11T03:16:51.514Z,0
2022-10-11T03:22:15.018Z,0
2022-10-11T03:27:37.426Z,0
2022-10-11T03:32:59.748Z,0
2022-10-11T03:38:22.215Z,0
2022-10-11T03:43:44.843Z,0
2022-10-11T03:49:12.587Z,0
2022-10-11T03:54:53.147Z,0
2022-10-11T04:00:15.774Z,0
2022-10-11T04:05:38.195Z,0
2022-10-11T04:11:00.634Z,0
2022-10-11T04:16:22.995Z,0
2022-10-11T04:27:16.335Z,0
2022-10-11T04:32:38.702Z,0
2022-10-11T04:38:04.151Z,0
2022-10-11T04:43:26.685Z,0
2022-10-11T04:48:49.019Z,0
2022-10-11T04:54:11.161Z,0
2022-10-11T04:59:33.659Z,0
2022-10-11T05:04:56.011Z,0
2022-10-11T05:10:18.551Z,0
2022-10-11T05:15:43.725Z,0
2022-10-11T05:21:10.243Z,0
2022-10-11T05:26:32.658Z,0
2022-10-11T05:31:54.995Z,0
2022-10-11T05:39:55.778Z,0
2022-10-11T05:45:21.137Z,0
2022-10-11T05:50:43.704Z,0.1
2022-10-11T05:56:06.364Z,0.1
2022-10-11T06:01:33.231Z,0.1
2022-10-11T06:06:55.762Z,0.1
2022-10-11T06:12:18.453Z,0.1
2022-10-11T06:17:58.310Z,0.1
2022-10-11T06:23:20.746Z,0.2
2022-10-11T06:28:45.925Z,0.2
2022-10-11T06:34:12.058Z,0.2
2022-10-11T06:39:34.473Z,0.3
2022-10-11T06:44:57.084Z,0.3
2022-10-11T06:50:30.066Z,0.3
2022-10-11T06:56:23.371Z,0.3
2022-10-11T07:01:48.856Z,0.3
2022-10-11T07:07:11.350Z,0.4
2022-10-11T07:12:36.681Z,0.4
2022-10-11T07:18:02.275Z,0.4
2022-10-11T07:28:52.701Z,0.7
2022-10-11T07:34:16.025Z,0.5
2022-10-11T07:39:38.830Z,0.6
2022-10-11T07:45:01.447Z,0.7
2022-10-11T07:50:29.506Z,1.3
2022-10-11T07:55:52.175Z,1.1
2022-10-11T08:01:14.828Z,2.2
2022-10-11T08:06:38.172Z,0.8
2022-10-11T08:12:00.895Z,2.4
2022-10-11T08:17:40.046Z,2.8
2022-10-11T08:23:03.081Z,3.4
2022-10-11T08:28:26.168Z,2.8
2022-10-11T08:33:59.984Z,2.7
2022-10-11T08:39:22.848Z,2.5
2022-10-11T08:45:09.322Z,2.5
2022-10-11T08:50:37.651Z,1.9
2022-10-11T08:56:01.339Z,1.6
2022-10-11T09:01:24.343Z,2
2022-10-11T09:06:55.148Z,2.7
2022-10-11T09:12:17.932Z,3.9
2022-10-11T09:17:40.443Z,4.1
2022-10-11T09:23:05.731Z,4.6
2022-10-11T09:33:55.861Z,6.3
2022-10-11T09:39:18.477Z,6.5
2022-10-11T09:44:41.533Z,7.6
2022-10-11T09:50:04.082Z,7
2022-10-11T09:55:26.770Z,6
2022-10-11T10:00:49.652Z,4.7
2022-10-11T10:06:13.130Z,5.1
2022-10-11T10:11:36.094Z,5
2022-10-11T10:17:01.897Z,4.6
2022-10-11T10:22:26.620Z,5
2022-10-11T10:27:49.571Z,5.4
2022-10-11T10:33:12.959Z,2.9
2022-10-11T10:38:36.244Z,5.2
2022-10-11T10:43:58.893Z,0.7
2022-10-11T10:49:41.481Z,0.7
2022-10-11T10:55:21.078Z,4.8
2022-10-11T11:00:44.250Z,5.3
2022-10-11T11:06:07.891Z,5.6
2022-10-11T11:11:32.350Z,5.3
2022-10-11T11:16:54.984Z,5.5
2022-10-11T11:22:21.330Z,5.6
2022-10-11T11:27:45.529Z,5.4
2022-10-11T11:33:11.617Z,4.9
2022-10-11T11:38:37.520Z,5.2
2022-10-11T11:44:00.263Z,5.5
2022-10-11T11:49:22.674Z,5
2022-10-11T11:54:45.105Z,1.2
2022-10-11T12:00:06.319Z,1.8
2022-10-11T12:11:01.599Z,5.7
2022-10-11T12:16:24.774Z,5.8
2022-10-11T12:21:50.879Z,5.7
2022-10-11T12:27:13.348Z,5.2
2022-10-11T12:32:36.281Z,4.7
2022-10-11T12:37:59.010Z,5
2022-10-11T12:43:24.521Z,4.8
2022-10-11T12:48:47.380Z,4.7
2022-10-11T12:54:25.841Z,4.7
2022-10-11T13:00:00.904Z,4.3
2022-10-11T13:05:24.042Z,4.5
2022-10-11T13:10:46.393Z,3.9
2022-10-11T13:16:15.215Z,3.8
2022-10-11T13:21:38.299Z,4.3
2022-10-11T13:27:03.689Z,3.7
2022-10-11T13:32:26.207Z,3.2
2022-10-11T13:37:49.203Z,3.7
2022-10-11T13:43:11.866Z,3.7
2022-10-11T13:48:34.521Z,3.7
2022-10-11T13:53:57.018Z,3.7
2022-10-11T13:59:19.240Z,3.6
2022-10-11T14:04:41.507Z,3.4
2022-10-11T14:10:04.084Z,3.2
2022-10-11T14:15:27.527Z,3.2
2022-10-11T14:20:50.306Z,3.1
2022-10-11T14:26:16.363Z,2.7
2022-10-11T14:31:44.257Z,2.5
2022-10-11T14:37:06.136Z,0.6
2022-10-11T14:42:27.045Z,0.5
2022-10-11T14:47:48.912Z,0.5
2022-10-11T14:53:10.991Z,0.4
2022-10-11T14:58:33.233Z,0.3
2022-10-11T15:04:01.386Z,0.3
2022-10-11T15:09:23.766Z,0.2
2022-10-11T15:14:46.030Z,0.2
2022-10-11T15:20:08.468Z,0.2
2022-10-11T15:26:51.915Z,0.2
2022-10-11T15:32:14.481Z,0.2
2022-10-11T15:37:37.520Z,0.2
2022-10-11T15:43:00.171Z,0.2
2022-10-11T15:48:25.230Z,0.2
2022-10-11T15:53:47.367Z,0.1
2022-10-11T15:59:10.439Z,0.1
2022-10-11T16:04:32.603Z,0.1
2022-10-11T16:09:57.798Z,0.1
2022-10-11T16:15:20.680Z,0.1
2022-10-11T16:20:42.985Z,0.1
2022-10-11T16:26:05.612Z,0.1
2022-10-11T16:36:51.629Z,0.1
2022-10-11T16:42:16.546Z,0.1
2022-10-11T16:47:41.086Z,0.1
2022-10-11T16:53:06.588Z,0
2022-10-11T16:58:37.933Z,0
2022-10-11T17:04:11.691Z,0
2022-10-11T17:09:34.312Z,0
2022-10-11T17:14:56.625Z,0
2022-10-11T17:20:21.488Z,0
2022-10-11T17:25:51.475Z,0
2022-10-11T17:31:21.431Z,0
2022-10-11T17:36:49.126Z,0
2022-10-11T17:42:11.822Z,0
2022-10-11T17:47:37.080Z,0
2022-10-11T17:52:59.540Z,0
2022-10-11T17:58:22.054Z,0
2022-10-11T18:03:44.297Z,0
2022-10-11T18:09:06.755Z,0
2022-10-11T18:14:29.451Z,0
2022-10-11T18:19:52.055Z,0
2022-10-11T18:25:14.482Z,0
2022-10-11T18:30:37.027Z,0
2022-10-11T18:36:11.242Z,0
2022-10-11T18:41:34.105Z,0
2022-10-11T18:46:56.509Z,0
2022-10-11T18:52:18.641Z,0
2022-10-11T18:57:41.645Z,0
2022-10-11T19:03:13.351Z,0
2022-10-11T19:08:35.669Z,0
2022-10-11T19:13:58.209Z,0
2022-10-11T19:19:20.530Z,0
2022-10-11T19:24:42.984Z,0
2022-10-11T19:30:05.383Z,0
2022-10-11T19:35:30.817Z,0
2022-10-11T19:40:52.976Z,0
2022-10-11T19:46:17.794Z,0
2022-10-11T19:52:15.185Z,0
2022-10-11T19:57:37.334Z,0
2022-10-11T20:02:59.714Z,0
2022-10-11T20:08:22.160Z,0
2022-10-11T20:13:44.597Z,0
2022-10-11T20:19:07.229Z,0
2022-10-11T20:24:32.818Z,0
2022-10-11T20:29:57.092Z,0
2022-10-11T20:35:19.477Z,0
2022-10-11T20:40:42.159Z,0
2022-10-11T20:46:12.257Z,0
2022-10-11T20:51:34.592Z,0
2022-10-11T20:56:57.038Z,0
2022-10-11T21:02:19.542Z,0
2022-10-11T21:07:41.900Z,0
2022-10-11T21:13:04.179Z,0
2022-10-11T21:18:26.314Z,0
2022-10-11T21:23:48.868Z,0
2022-10-11T21:29:11.268Z,0
2022-10-11T21:34:33.627Z,0
2022-10-11T21:39:55.761Z,0
2022-10-11T21:45:18.249Z,0
2022-10-11T21:50:40.965Z,0
2022-10-11T21:56:03.574Z,0
2022-10-11T22:01:26.260Z,0
2022-10-11T22:06:48.793Z,0
2022-10-11T22:12:52.109Z,0
2022-10-11T22:18:14.402Z,0
2022-10-11T22:23:56.491Z,0
2022-10-11T22:29:18.846Z,0
2022-10-11T22:34:41.428Z,0
2022-10-11T22:40:03.927Z,0
2022-10-11T22:45:26.235Z,0
2022-10-11T22:50:48.493Z,0
2022-10-11T22:56:10.845Z,0
2022-10-11T23:01:33.597Z,0
2022-10-11T23:06:55.924Z,0
2022-10-11T23:23:32.797Z,0
2022-10-11T23:28:54.966Z,0
2022-10-11T23:34:20.652Z,0
2022-10-11T23:39:43.330Z,0
2022-10-11T23:45:05.634Z,0
2022-10-11T23:50:28.182Z,0
2022-10-11T23:55:50.594Z,0
